Time;durP1;ratioP1;P1;durP2;ratioP2;P2;SDS_P1;SDS_P2;PMS_P1;PMS_P2;Temp;Humidity;BMP_temperature;BMP_pressure;BME280_temperature;BME280_humidity;BME280_pressure;Samples;Min_cycle;Max_cycle;Signal;HPM_P1;HPM_P2
2023/07/17 00:00:14;;;;;;;5.43;4.93;;;;;;;;;;10550504;28;20044;-84
2023/07/17 00:05:16;;;;;;;5.13;4.60;;;;;;;;;;10567633;28;20030;-83
2023/07/17 00:10:17;;;;;;;6.95;5.13;;;;;;;;;;10559903;28;20027;-84
2023/07/17 00:15:18;;;;;;;6.00;4.68;;;;;;;;;;10541035;28;20107;-84
2023/07/17 00:20:20;;;;;;;8.00;5.18;;;;;;;;;;10556516;28;20030;-83
2023/07/17 00:25:21;;;;;;;6.40;4.78;;;;;;;;;;10530624;28;20020;-84
2023/07/17 00:30:22;;;;;;;6.10;4.82;;;;;;;;;;10551750;28;20047;-84
2023/07/17 00:35:23;;;;;;;7.05;5.10;;;;;;;;;;10553928;28;20463;-83
2023/07/17 00:40:24;;;;;;;6.72;5.50;;;;;;;;;;10572789;28;20047;-84
2023/07/17 00:45:26;;;;;;;6.40;5.80;;;;;;;;;;10537429;28;20032;-84
2023/07/17 00:50:27;;;;;;;8.32;6.10;;;;;;;;;;10547231;28;20488;-83
2023/07/17 00:55:28;;;;;;;6.55;5.78;;;;;;;;;;10546871;28;20043;-83
2023/07/17 01:00:30;;;;;;;7.35;5.70;;;;;;;;;;10551630;28;20093;-84
2023/07/17 01:05:31;;;;;;;7.20;5.68;;;;;;;;;;10562247;28;20024;-85
2023/07/17 01:10:32;;;;;;;7.60;5.82;;;;;;;;;;10549847;28;20043;-83
2023/07/17 01:15:33;;;;;;;7.22;5.70;;;;;;;;;;10534344;28;20020;-83
2023/07/17 01:20:34;;;;;;;7.05;6.30;;;;;;;;;;10558356;28;20024;-83
2023/07/17 01:25:35;;;;;;;9.20;5.15;;;;;;;;;;10544479;28;20047;-83
2023/07/17 01:30:36;;;;;;;6.57;5.72;;;;;;;;;;10530648;28;20047;-83
2023/07/17 01:35:37;;;;;;;5.93;5.28;;;;;;;;;;10554413;28;20039;-83
2023/07/17 01:40:38;;;;;;;6.80;6.13;;;;;;;;;;10550299;28;20055;-84
2023/07/17 01:45:39;;;;;;;7.20;6.43;;;;;;;;;;10545267;28;20039;-84
2023/07/17 01:50:40;;;;;;;6.28;5.68;;;;;;;;;;10541335;28;20058;-83
2023/07/17 01:55:41;;;;;;;7.72;5.72;;;;;;;;;;10544365;28;20028;-84
2023/07/17 02:00:42;;;;;;;8.30;5.55;;;;;;;;;;10546929;28;20031;-84
2023/07/17 02:05:43;;;;;;;6.70;5.57;;;;;;;;;;10557663;28;20097;-84
2023/07/17 02:10:45;;;;;;;7.75;5.63;;;;;;;;;;10539508;28;20093;-84
2023/07/17 02:15:46;;;;;;;7.15;5.82;;;;;;;;;;10544602;28;20115;-84
2023/07/17 02:20:50;;;;;;;7.97;6.18;;;;;;;;;;10566632;28;20080;-84
2023/07/17 02:25:50;;;;;;;7.40;6.43;;;;;;;;;;10550656;28;20078;-84
2023/07/17 02:30:51;;;;;;;7.28;5.93;;;;;;;;;;10547493;28;20065;-85
2023/07/17 02:35:52;;;;;;;7.20;6.50;;;;;;;;;;10547187;28;20036;-84
2023/07/17 02:40:53;;;;;;;7.03;5.30;;;;;;;;;;10563417;28;20059;-83
2023/07/17 02:45:54;;;;;;;6.50;5.70;;;;;;;;;;10552303;28;20097;-84
2023/07/17 02:50:55;;;;;;;6.97;5.72;;;;;;;;;;10565198;28;20043;-84
2023/07/17 02:55:56;;;;;;;6.18;5.50;;;;;;;;;;10555730;28;20053;-85
2023/07/17 03:00:58;;;;;;;7.15;5.95;;;;;;;;;;10549239;28;20047;-84
2023/07/17 03:05:59;;;;;;;8.35;6.40;;;;;;;;;;10531587;28;20028;-84
2023/07/17 03:11:03;;;;;;;5.78;5.28;;;;;;;;;;10554553;28;20035;-83
2023/07/17 03:16:04;;;;;;;8.52;6.10;;;;;;;;;;10532257;28;20039;-85
2023/07/17 03:21:05;;;;;;;7.28;5.60;;;;;;;;;;10566470;28;20031;-84
2023/07/17 03:26:06;;;;;;;7.93;4.90;;;;;;;;;;10551874;28;20024;-84
2023/07/17 03:31:07;;;;;;;8.75;5.85;;;;;;;;;;10535681;28;20499;-84
2023/07/17 03:36:08;;;;;;;10.38;5.85;;;;;;;;;;10545815;28;20053;-84
2023/07/17 03:41:09;;;;;;;5.70;5.07;;;;;;;;;;10558209;28;20056;-83
2023/07/17 03:46:10;;;;;;;7.85;6.20;;;;;;;;;;10549598;28;20028;-84
2023/07/17 03:51:11;;;;;;;7.95;5.40;;;;;;;;;;10559604;28;20102;-83
2023/07/17 03:56:12;;;;;;;5.97;5.28;;;;;;;;;;10552013;28;20031;-84
2023/07/17 04:01:13;;;;;;;6.53;5.68;;;;;;;;;;10547160;28;20570;-84
2023/07/17 04:06:14;;;;;;;5.78;5.10;;;;;;;;;;10538769;28;20032;-84
2023/07/17 04:11:15;;;;;;;7.63;5.20;;;;;;;;;;10542003;28;20036;-83
2023/07/17 04:16:19;;;;;;;5.75;4.82;;;;;;;;;;10526040;28;20028;-84
2023/07/17 04:21:21;;;;;;;5.65;4.40;;;;;;;;;;10546978;28;20020;-84
2023/07/17 04:26:21;;;;;;;5.63;4.82;;;;;;;;;;10559735;28;20038;-84
2023/07/17 04:31:23;;;;;;;6.18;4.70;;;;;;;;;;10553251;28;20369;-84
2023/07/17 04:36:24;;;;;;;6.18;4.95;;;;;;;;;;10550820;28;20059;-84
2023/07/17 04:41:24;;;;;;;8.25;5.88;;;;;;;;;;10542472;28;20515;-84
2023/07/17 04:46:26;;;;;;;7.68;5.18;;;;;;;;;;10542730;28;20028;-85
2023/07/17 04:51:28;;;;;;;8.60;5.70;;;;;;;;;;10563975;28;20032;-83
2023/07/17 04:56:29;;;;;;;7.13;5.47;;;;;;;;;;10544813;28;20023;-83
2023/07/17 05:01:30;;;;;;;7.80;5.85;;;;;;;;;;10537435;28;20031;-83
2023/07/17 05:06:31;;;;;;;11.30;6.47;;;;;;;;;;10548343;28;20024;-83
2023/07/17 05:11:32;;;;;;;27.23;13.55;;;;;;;;;;10556281;28;20039;-87
2023/07/17 05:16:33;;;;;;;22.85;15.10;;;;;;;;;;10547201;28;20036;-87
2023/07/17 05:21:34;;;;;;;25.70;17.40;;;;;;;;;;10527501;28;20036;-84
2023/07/17 05:26:35;;;;;;;29.67;20.00;;;;;;;;;;10492928;28;20031;-86
2023/07/17 05:31:36;;;;;;;21.42;15.65;;;;;;;;;;10530580;28;20558;-81
2023/07/17 05:36:37;;;;;;;20.98;15.45;;;;;;;;;;10522753;28;20030;-83
2023/07/17 05:41:38;;;;;;;25.30;19.52;;;;;;;;;;10515814;28;20232;-86
2023/07/17 05:46:39;;;;;;;35.83;23.55;;;;;;;;;;10512689;28;20028;-83
2023/07/17 05:51:41;;;;;;;49.00;27.98;;;;;;;;;;10510404;28;20028;-85
2023/07/17 05:56:42;;;;;;;44.25;27.42;;;;;;;;;;10515110;28;20603;-82
2023/07/17 06:01:43;;;;;;;35.10;23.48;;;;;;;;;;10511266;28;20055;-83
2023/07/17 06:06:44;;;;;;;35.72;23.50;;;;;;;;;;10505629;28;20040;-82
2023/07/17 06:11:46;;;;;;;23.02;15.90;;;;;;;;;;10527186;28;20044;-84
2023/07/17 06:16:47;;;;;;;15.30;11.65;;;;;;;;;;10529231;28;20051;-82
2023/07/17 06:21:48;;;;;;;17.00;13.07;;;;;;;;;;10526981;28;20050;-84
2023/07/17 06:26:49;;;;;;;15.88;12.00;;;;;;;;;;10521483;28;20031;-86
2023/07/17 06:31:50;;;;;;;14.77;10.68;;;;;;;;;;10521514;28;20075;-83
2023/07/17 06:36:51;;;;;;;19.35;13.52;;;;;;;;;;10525007;28;20034;-82
2023/07/17 06:41:52;;;;;;;15.90;12.57;;;;;;;;;;10526827;28;20032;-82
2023/07/17 06:46:53;;;;;;;13.52;10.60;;;;;;;;;;10524706;28;20066;-81
2023/07/17 06:51:54;;;;;;;15.10;10.88;;;;;;;;;;10520793;28;20383;-84
2023/07/17 06:56:55;;;;;;;15.82;11.68;;;;;;;;;;10521186;28;20032;-81
2023/07/17 07:01:56;;;;;;;10.35;8.90;;;;;;;;;;10518198;28;20024;-83
2023/07/17 07:06:58;;;;;;;9.85;8.30;;;;;;;;;;10538998;28;20326;-84
2023/07/17 07:11:59;;;;;;;10.35;9.13;;;;;;;;;;10544879;28;20501;-83
2023/07/17 07:17:00;;;;;;;11.90;8.55;;;;;;;;;;10538607;28;20114;-83
2023/07/17 07:22:01;;;;;;;13.25;9.90;;;;;;;;;;10553846;28;20023;-84
2023/07/17 07:27:02;;;;;;;10.18;7.70;;;;;;;;;;10554039;28;20043;-84
2023/07/17 07:32:03;;;;;;;9.88;8.70;;;;;;;;;;10567747;28;20063;-83
2023/07/17 07:37:04;;;;;;;10.00;8.15;;;;;;;;;;10568648;28;20043;-84
2023/07/17 07:42:05;;;;;;;17.70;12.68;;;;;;;;;;10540025;28;20038;-83
2023/07/17 07:47:06;;;;;;;10.75;9.57;;;;;;;;;;10562334;28;20498;-84
2023/07/17 07:52:07;;;;;;;13.68;9.80;;;;;;;;;;10551738;28;20046;-84
2023/07/17 07:57:09;;;;;;;9.25;6.50;;;;;;;;;;10537681;28;20097;-83
2023/07/17 08:02:10;;;;;;;10.57;8.48;;;;;;;;;;10551574;28;20741;-83
2023/07/17 08:07:11;;;;;;;17.73;14.13;;;;;;;;;;10547198;28;20024;-83
2023/07/17 08:12:12;;;;;;;8.57;7.68;;;;;;;;;;10521313;28;20039;-84
2023/07/17 08:17:13;;;;;;;10.50;8.02;;;;;;;;;;10526613;28;20390;-83
2023/07/17 08:22:14;;;;;;;15.40;10.85;;;;;;;;;;10543410;28;20026;-83
2023/07/17 08:27:15;;;;;;;11.30;8.10;;;;;;;;;;10526442;28;20051;-83
2023/07/17 08:32:16;;;;;;;16.58;11.57;;;;;;;;;;10531568;28;20073;-84
2023/07/17 08:37:17;;;;;;;16.88;12.75;;;;;;;;;;10528710;28;20693;-84
2023/07/17 08:42:18;;;;;;;21.50;14.15;;;;;;;;;;10523507;28;20142;-84
2023/07/17 08:47:20;;;;;;;22.65;12.73;;;;;;;;;;10542460;28;20024;-84
2023/07/17 08:52:22;;;;;;;21.40;14.23;;;;;;;;;;10515516;28;20040;-84
2023/07/17 08:57:23;;;;;;;25.70;14.25;;;;;;;;;;10540505;28;20073;-84
2023/07/17 09:02:24;;;;;;;22.73;14.10;;;;;;;;;;10526465;28;20070;-84
2023/07/17 09:07:25;;;;;;;25.92;19.65;;;;;;;;;;10563395;28;20032;-85
2023/07/17 09:12:26;;;;;;;19.65;14.82;;;;;;;;;;10546137;28;20623;-85
2023/07/17 09:17:27;;;;;;;15.82;11.45;;;;;;;;;;10541693;28;20449;-84
2023/07/17 09:22:28;;;;;;;10.95;9.60;;;;;;;;;;10544456;28;20542;-85
2023/07/17 09:27:29;;;;;;;11.48;9.20;;;;;;;;;;10539760;28;20042;-83
2023/07/17 09:32:32;;;;;;;14.13;11.60;;;;;;;;;;10528962;28;20044;-85
2023/07/17 09:37:35;;;;;;;19.90;14.60;;;;;;;;;;10535233;28;20373;-84
2023/07/17 09:42:36;;;;;;;12.27;9.32;;;;;;;;;;10534556;28;20031;-84
2023/07/17 09:47:37;;;;;;;10.68;9.02;;;;;;;;;;10543881;27;20077;-85
2023/07/17 09:52:38;;;;;;;14.98;7.70;;;;;;;;;;10532589;28;20040;-84
2023/07/17 09:57:39;;;;;;;7.80;6.28;;;;;;;;;;10542668;28;20027;-85
2023/07/17 10:02:46;;;;;;;8.02;6.72;;;;;;;;;;10526774;28;20032;-86
2023/07/17 10:07:49;;;;;;;10.45;6.90;;;;;;;;;;10542557;28;20081;-84
2023/07/17 10:12:50;;;;;;;7.25;6.43;;;;;;;;;;10525229;28;20735;-85
2023/07/17 10:17:58;;;;;;;7.85;6.10;;;;;;;;;;10524957;28;20032;-86
2023/07/17 10:22:59;;;;;;;9.00;5.55;;;;;;;;;;10548433;28;20059;-85
2023/07/17 10:28:02;;;;;;;6.35;5.75;;;;;;;;;;10534120;28;20024;-85
2023/07/17 10:33:06;;;;;;;8.07;6.43;;;;;;;;;;10528874;28;20036;-86
2023/07/17 10:38:12;;;;;;;9.02;7.13;;;;;;;;;;10526541;28;20079;-87
2023/07/17 10:43:15;;;;;;;9.80;7.70;;;;;;;;;;10541865;28;20035;-85
2023/07/17 10:48:18;;;;;;;13.30;10.60;;;;;;;;;;10528906;28;20032;-85
2023/07/17 10:53:21;;;;;;;10.82;9.32;;;;;;;;;;10522946;28;20122;-86
2023/07/17 10:58:23;;;;;;;10.65;7.80;;;;;;;;;;10524974;28;20579;-86
2023/07/17 11:03:26;;;;;;;11.02;7.90;;;;;;;;;;10527127;28;20024;-85
2023/07/17 11:08:28;;;;;;;10.60;8.40;;;;;;;;;;10527192;28;20039;-85
2023/07/17 11:13:32;;;;;;;11.20;8.02;;;;;;;;;;10538619;28;20062;-85
2023/07/17 11:18:44;;;;;;;11.80;9.50;;;;;;;;;;10523571;28;20027;-85
2023/07/17 11:23:54;;;;;;;12.40;9.98;;;;;;;;;;10517252;28;20274;-88
2023/07/17 11:28:59;;;;;;;16.00;12.63;;;;;;;;;;10540020;28;20469;-85
2023/07/17 11:34:04;;;;;;;17.58;12.98;;;;;;;;;;10523687;28;20035;-85
2023/07/17 11:39:10;;;;;;;18.13;13.45;;;;;;;;;;10537474;28;20056;-87
2023/07/17 11:44:11;;;;;;;16.30;11.63;;;;;;;;;;10531277;28;20468;-87
2023/07/17 11:49:12;;;;;;;15.98;11.20;;;;;;;;;;10541901;28;20059;-86
2023/07/17 11:54:13;;;;;;;13.73;10.80;;;;;;;;;;10538535;28;20039;-87
2023/07/17 11:59:21;;;;;;;17.20;12.65;;;;;;;;;;10539546;28;20036;-87
2023/07/17 12:04:24;;;;;;;18.85;15.45;;;;;;;;;;10521762;28;20020;-86
2023/07/17 12:09:25;;;;;;;23.40;15.18;;;;;;;;;;10517918;28;20028;-86
2023/07/17 12:14:26;;;;;;;26.52;17.20;;;;;;;;;;10537298;28;20040;-85
2023/07/17 12:19:27;;;;;;;24.98;17.25;;;;;;;;;;10533113;28;20036;-86
2023/07/17 12:24:28;;;;;;;29.15;17.67;;;;;;;;;;10517689;28;20028;-84
2023/07/17 12:29:29;;;;;;;20.83;15.57;;;;;;;;;;10537462;28;20032;-87
2023/07/17 12:34:30;;;;;;;22.98;16.20;;;;;;;;;;10539160;28;20047;-88
2023/07/17 12:39:31;;;;;;;15.90;11.32;;;;;;;;;;10552117;28;20247;-87
2023/07/17 12:44:33;;;;;;;15.23;9.85;;;;;;;;;;10552414;28;20027;-88
2023/07/17 12:49:34;;;;;;;12.68;8.10;;;;;;;;;;10560846;28;20481;-87
2023/07/17 12:54:35;;;;;;;16.50;10.20;;;;;;;;;;10537115;28;20039;-87
2023/07/17 12:59:36;;;;;;;15.30;9.75;;;;;;;;;;10535960;28;20035;-84
2023/07/17 13:04:37;;;;;;;20.25;12.82;;;;;;;;;;10535703;28;20611;-85
2023/07/17 13:09:38;;;;;;;17.65;12.43;;;;;;;;;;10545644;28;20023;-84
2023/07/17 13:14:40;;;;;;;18.63;13.60;;;;;;;;;;10537001;28;20086;-84
2023/07/17 13:19:41;;;;;;;19.02;12.80;;;;;;;;;;10541520;28;20585;-85
2023/07/17 13:24:42;;;;;;;19.08;12.70;;;;;;;;;;10535818;28;20035;-85
2023/07/17 13:29:44;;;;;;;17.73;12.05;;;;;;;;;;10537405;28;20049;-85
2023/07/17 13:34:45;;;;;;;18.33;12.00;;;;;;;;;;10548345;28;20047;-85
2023/07/17 13:39:46;;;;;;;18.77;13.18;;;;;;;;;;10572448;28;20070;-85
2023/07/17 13:44:47;;;;;;;14.73;12.23;;;;;;;;;;10566158;28;20035;-84
2023/07/17 13:49:48;;;;;;;13.63;11.23;;;;;;;;;;10542157;28;20023;-84
2023/07/17 13:54:49;;;;;;;16.00;12.07;;;;;;;;;;10523582;28;20065;-85
2023/07/17 14:05:32;;;;;;;14.30;11.85;;;;;;;;;;10520933;28;20429;-86
2023/07/17 14:10:33;;;;;;;14.43;11.85;;;;;;;;;;10528899;28;20035;-87
2023/07/17 14:15:37;;;;;;;15.65;12.27;;;;;;;;;;10529310;28;20668;-87
2023/07/17 14:20:38;;;;;;;13.55;11.85;;;;;;;;;;10527437;28;20142;-86
2023/07/17 14:25:39;;;;;;;12.75;11.30;;;;;;;;;;10520906;28;20053;-87
2023/07/17 14:36:21;;;;;;;17.98;14.77;;;;;;;;;;10524780;28;20024;-87
2023/07/17 14:41:40;;;;;;;16.88;14.02;;;;;;;;;;10526242;28;20044;-87
2023/07/17 14:46:43;;;;;;;20.20;16.75;;;;;;;;;;10524465;28;20068;-87
2023/07/17 14:51:44;;;;;;;19.13;14.13;;;;;;;;;;10526852;28;20046;-88
2023/07/17 14:56:45;;;;;;;17.35;13.05;;;;;;;;;;10535988;28;20036;-85
2023/07/17 15:01:46;;;;;;;18.77;14.10;;;;;;;;;;10567892;28;20027;-83
2023/07/17 15:06:47;;;;;;;18.80;15.15;;;;;;;;;;10564514;28;20027;-85
2023/07/17 15:12:03;;;;;;;19.88;17.40;;;;;;;;;;10542738;28;20044;-85
2023/07/17 15:28:53;;;;;;;23.85;20.52;;;;;;;;;;10469245;28;20028;-87
2023/07/17 15:33:58;;;;;;;24.75;19.45;;;;;;;;;;10558290;28;20071;-88
2023/07/17 15:39:22;;;;;;;25.70;19.42;;;;;;;;;;10512552;28;20166;-87
2023/07/17 15:44:54;;;;;;;21.60;18.00;;;;;;;;;;10523732;28;20036;-87
2023/07/17 15:49:55;;;;;;;18.55;15.52;;;;;;;;;;10523693;28;20032;-87
2023/07/17 15:54:56;;;;;;;16.40;12.43;;;;;;;;;;10521024;28;20500;-89
2023/07/17 15:59:57;;;;;;;14.98;12.73;;;;;;;;;;10524454;28;20032;-88
2023/07/17 16:05:01;;;;;;;13.65;12.20;;;;;;;;;;10522632;28;20155;-87
2023/07/17 16:10:02;;;;;;;12.30;11.00;;;;;;;;;;10527705;28;20491;-86
2023/07/17 16:15:03;;;;;;;16.73;13.25;;;;;;;;;;10533165;28;20131;-86
2023/07/17 16:20:05;;;;;;;15.02;13.02;;;;;;;;;;10531562;28;20038;-86
2023/07/17 16:25:06;;;;;;;17.27;13.93;;;;;;;;;;10531764;28;20040;-88
2023/07/17 16:30:07;;;;;;;15.38;13.55;;;;;;;;;;10533372;28;20020;-85
2023/07/17 16:35:08;;;;;;;14.48;12.93;;;;;;;;;;10531887;28;20040;-85
2023/07/17 16:40:10;;;;;;;13.23;11.38;;;;;;;;;;10532696;28;20558;-86
2023/07/17 16:45:12;;;;;;;14.13;11.68;;;;;;;;;;10532901;28;20028;-85
2023/07/17 16:50:13;;;;;;;13.32;11.75;;;;;;;;;;10531148;28;20024;-85
2023/07/17 17:00:53;;;;;;;17.35;15.45;;;;;;;;;;10552031;28;20032;-86
2023/07/17 17:05:54;;;;;;;17.85;14.40;;;;;;;;;;10568554;28;20075;-85
2023/07/17 17:10:55;;;;;;;17.42;15.25;;;;;;;;;;10547232;28;20043;-86
2023/07/17 17:22:04;;;;;;;18.30;13.55;;;;;;;;;;10505589;28;20479;-88
2023/07/17 17:27:05;;;;;;;16.13;13.45;;;;;;;;;;10529884;28;20213;-86
2023/07/17 17:32:35;;;;;;;16.23;13.23;;;;;;;;;;10535485;28;20507;-88
2023/07/17 17:37:36;;;;;;;16.67;13.32;;;;;;;;;;10528384;28;20389;-85
2023/07/17 17:42:41;;;;;;;18.60;13.80;;;;;;;;;;10528588;28;20039;-87
2023/07/17 17:47:42;;;;;;;18.05;13.57;;;;;;;;;;10529403;28;20566;-87
2023/07/17 17:52:43;;;;;;;17.92;14.15;;;;;;;;;;10528322;28;20048;-85
2023/07/17 18:03:45;;;;;;;22.25;16.77;;;;;;;;;;10528104;28;20044;-85
2023/07/17 18:08:47;;;;;;;22.70;17.02;;;;;;;;;;10528956;28;20047;-85
2023/07/17 18:19:40;;;;;;;29.10;20.67;;;;;;;;;;10527034;28;20040;-88
2023/07/17 18:30:13;;;;;;;31.33;24.00;;;;;;;;;;10527510;28;20043;-86
2023/07/17 18:35:14;;;;;;;26.23;19.63;;;;;;;;;;10526918;28;20040;-87
2023/07/17 18:40:16;;;;;;;28.27;22.05;;;;;;;;;;10501220;28;20087;-87
2023/07/17 18:45:17;;;;;;;32.25;21.95;;;;;;;;;;10518003;28;20059;-88
2023/07/17 18:50:34;;;;;;;26.70;19.17;;;;;;;;;;10517318;28;20055;-87
2023/07/17 18:55:35;;;;;;;26.55;18.67;;;;;;;;;;10567957;28;20049;-90
2023/07/17 19:00:45;;;;;;;26.38;19.98;;;;;;;;;;10557309;28;20084;-90
2023/07/17 19:05:48;;;;;;;32.35;22.20;;;;;;;;;;10526694;28;20063;-88
2023/07/17 19:10:51;;;;;;;29.10;20.48;;;;;;;;;;10544383;28;20031;-87
2023/07/17 19:15:52;;;;;;;34.70;22.38;;;;;;;;;;10548955;28;20031;-87
2023/07/17 19:20:53;;;;;;;41.25;24.70;;;;;;;;;;10549159;28;20225;-87
2023/07/17 19:25:55;;;;;;;30.77;22.58;;;;;;;;;;10542431;28;20145;-86
2023/07/17 19:30:56;;;;;;;39.03;26.63;;;;;;;;;;10523057;28;20411;-85
2023/07/17 19:35:57;;;;;;;35.15;21.90;;;;;;;;;;10525687;28;20028;-85
2023/07/17 19:40:58;;;;;;;38.42;25.17;;;;;;;;;;10527893;28;20399;-85
2023/07/17 19:45:59;;;;;;;64.47;32.80;;;;;;;;;;10529149;28;20427;-87
2023/07/17 19:51:00;;;;;;;43.33;29.45;;;;;;;;;;10541233;28;20039;-87
2023/07/17 19:56:02;;;;;;;61.35;33.25;;;;;;;;;;10519903;28;20041;-84
2023/07/17 20:01:03;;;;;;;56.25;28.58;;;;;;;;;;10550219;28;20024;-85
2023/07/17 20:06:05;;;;;;;57.45;32.30;;;;;;;;;;10532533;28;20176;-85
2023/07/17 20:11:06;;;;;;;41.55;25.95;;;;;;;;;;10552751;28;20070;-87
2023/07/17 20:16:07;;;;;;;101.70;38.40;;;;;;;;;;10541290;28;20519;-84
2023/07/17 20:21:08;;;;;;;101.47;38.40;;;;;;;;;;10527401;28;20032;-86
2023/07/17 20:26:09;;;;;;;63.53;35.63;;;;;;;;;;10530134;28;20108;-85
2023/07/17 20:31:10;;;;;;;83.95;38.05;;;;;;;;;;10527258;28;20069;-86
2023/07/17 20:36:11;;;;;;;152.80;48.47;;;;;;;;;;10523500;28;20428;-86
2023/07/17 20:41:12;;;;;;;106.03;42.05;;;;;;;;;;10515269;28;20070;-84
2023/07/17 20:46:13;;;;;;;57.38;33.55;;;;;;;;;;10523964;28;20024;-86
2023/07/17 20:51:17;;;;;;;65.22;34.45;;;;;;;;;;10521385;28;20035;-85
2023/07/17 20:56:18;;;;;;;134.70;46.17;;;;;;;;;;10546853;28;20058;-84
2023/07/17 21:01:21;;;;;;;64.20;36.17;;;;;;;;;;10575564;28;20043;-86
2023/07/17 21:06:22;;;;;;;55.33;32.67;;;;;;;;;;10572890;28;20404;-86
2023/07/17 21:11:23;;;;;;;54.88;33.72;;;;;;;;;;10571737;28;20047;-84
2023/07/17 21:16:24;;;;;;;53.65;34.03;;;;;;;;;;10574382;28;20417;-85
2023/07/17 21:21:25;;;;;;;166.30;45.00;;;;;;;;;;10547468;28;20040;-85
2023/07/17 21:26:26;;;;;;;73.00;35.42;;;;;;;;;;10573110;28;20043;-85
2023/07/17 21:31:27;;;;;;;62.95;31.40;;;;;;;;;;10541046;28;20036;-84
2023/07/17 21:36:28;;;;;;;83.40;35.53;;;;;;;;;;10543430;28;20391;-86
2023/07/17 21:41:30;;;;;;;100.35;38.78;;;;;;;;;;10530949;28;20823;-87
2023/07/17 21:46:31;;;;;;;56.40;31.60;;;;;;;;;;10521873;28;20036;-87
2023/07/17 21:51:32;;;;;;;85.88;39.15;;;;;;;;;;10527451;28;20028;-86
2023/07/17 21:56:34;;;;;;;69.88;38.53;;;;;;;;;;10530894;28;20028;-87
2023/07/17 22:01:35;;;;;;;77.35;39.13;;;;;;;;;;10565518;28;20036;-86
2023/07/17 22:06:36;;;;;;;72.78;38.40;;;;;;;;;;10544533;28;20027;-86
2023/07/17 22:11:37;;;;;;;324.25;59.53;;;;;;;;;;10567192;28;20048;-87
2023/07/17 22:16:38;;;;;;;213.57;53.00;;;;;;;;;;10550199;28;20112;-86
2023/07/17 22:21:41;;;;;;;67.07;38.42;;;;;;;;;;10552561;28;20034;-86
2023/07/17 22:26:42;;;;;;;255.40;59.22;;;;;;;;;;10568265;28;20027;-87
2023/07/17 22:31:43;;;;;;;229.48;54.15;;;;;;;;;;10571588;28;20028;-86
2023/07/17 22:36:44;;;;;;;485.42;77.10;;;;;;;;;;10552014;28;20511;-86
2023/07/17 22:41:45;;;;;;;344.45;51.15;;;;;;;;;;10570802;28;20050;-86
2023/07/17 22:46:46;;;;;;;75.32;35.85;;;;;;;;;;10570530;28;20069;-86
2023/07/17 22:51:47;;;;;;;59.40;33.92;;;;;;;;;;10531622;28;20044;-86
2023/07/17 22:56:48;;;;;;;510.52;66.72;;;;;;;;;;10561291;28;20032;-86
2023/07/17 23:01:49;;;;;;;264.77;43.67;;;;;;;;;;10545349;28;20035;-87
2023/07/17 23:06:51;;;;;;;50.85;26.15;;;;;;;;;;10543077;28;20531;-85
2023/07/17 23:11:52;;;;;;;75.47;28.90;;;;;;;;;;10556045;28;20092;-86
2023/07/17 23:16:53;;;;;;;188.27;37.70;;;;;;;;;;10561590;28;20844;-86
2023/07/17 23:21:54;;;;;;;55.90;28.30;;;;;;;;;;10546825;28;20030;-86
2023/07/17 23:26:55;;;;;;;50.15;26.13;;;;;;;;;;10568491;28;20035;-85
2023/07/17 23:31:56;;;;;;;292.58;44.75;;;;;;;;;;10569634;28;20520;-85
2023/07/17 23:36:56;;;;;;;63.10;24.00;;;;;;;;;;10532823;28;20053;-86
2023/07/17 23:41:58;;;;;;;42.17;24.45;;;;;;;;;;10569225;28;20034;-86
2023/07/17 23:46:59;;;;;;;155.73;41.17;;;;;;;;;;10568982;28;20039;-87
2023/07/17 23:52:01;;;;;;;45.53;28.30;;;;;;;;;;10554231;28;20075;-86
2023/07/17 23:57:02;;;;;;;51.38;30.70;;;;;;;;;;10565896;28;20028;-86
